Pagrindinis puslapis
METAR-TAF:

METAR-TAF

Oro uostai :

Atėnai, Graikija

platuma: 37-56N, ilguma: 023-56E, Aukštis: 94 m

Dabartinis oras

Ataskaita buvo paskelbta 14 minutes, ne 08:20 UTC
Vėjas 9 kt iš Šiaurės, svyruoja nuo Šiaurės/Šiaurės Vakarų ir Šiaurės/Šiaurės Rytų
Temperatūra 12°C
Drėgmė 54%
Slėgis 1027 hPa
Matomumas 10 km arba daugiau
Mažai debesys ne aukštis 3000 ft

METAR: LGAV 060820Z 36009KT 330V030 9999 FEW030 12/03 Q1027 NOSIG

Laikas: 10:34 (08:34 UTC)

Prognozė

Ataskaita buvo paskelbta 3 valandos ir 34 minutes, ne 05:00 UTC
Prognozė galioja nuo 06 metu 06 UTC su 07 metu 06 UTC
Vėjas 15 kt iš Šiaurės
Matomumas 10 km arba daugiau
Mažai debesys ne aukštis 2000 ft
Tapsmas
nuo 06 metu 17 UTC su 06 metu 19 UTC
Vėjas 5 kt nuo kintamojo kryptimis
Tapsmas
nuo 07 metu 01 UTC su 07 metu 03 UTC
Vėjas 10 kt iš Pietvakarių

TAF: LGAV 060500Z 0606/0706 35015KT 9999 FEW020 BECMG 0617/0619 VRB05KT BECMG 0701/0703 22010KT

Orai ataskaitas ir orų prognozės (METAR, TAF).

turimą stotys yra geltonos ir raudonos taškus žemėlapyje.

Perkelti pele per norėdami pamatyti stoties vardą.

Tada spustelėkite, norėdami matyti oro stebėjimo ir prognozės.

Norėdami pakeisti žemėlapį: spustelėkite ant žalios mygtukų su juodo kryžiaus žemyn,; žalią mygtuką su brūkšneliu, jei norite nutolinti; arba žalių rodyklių gretimoms žemėlapius.


METAR-TAF: